Observations for LUTON AIRPORT, United Kingdom (EGGW)

EGGW 180250Z AUTO 15005KT 7000 NCD 02/01 Q1022  
EGGW 180220Z AUTO 17005KT 7000 NCD 02/02 Q1022  
EGGW 180150Z AUTO 15004KT 8000 NCD 01/01 Q1022  
EGGW 180120Z AUTO 20005KT 9999 NCD 02/02 Q1022  
EGGW 180050Z AUTO 18005KT 9000 NCD 02/01 Q1022  
EGGW 180020Z AUTO 20006KT 9999 NCD 03/02 Q1022  
EGGW 172350Z AUTO 19006KT 9999 NCD 03/02 Q1022  
EGGW 172320Z AUTO 20006KT 9999 NCD 03/02 Q1022  
EGGW 172250Z AUTO 19005KT 9999 NCD 04/02 Q1022  
EGGW 172220Z AUTO 19006KT 9999 SCT044 04/02 Q1022   
EGGW 172150Z AUTO 19005KT 9999 NCD 04/02 Q1022  
EGGW 172120Z AUTO 19005KT 9999 NCD 04/01 Q1022  
EGGW 172050Z AUTO 19004KT 9999 NCD 04/01 Q1022  
EGGW 172020Z AUTO 19004KT 9999 FEW047 05/01 Q1022   
EGGW 171950Z AUTO 18005KT 9999 BKN046 06/01 Q1022   
EGGW 171920Z AUTO 18004KT 9999 BKN044 06/01 Q1022   
EGGW 171850Z AUTO 19004KT 9999 FEW028 OVC045 06/01 Q1022
EGGW 171820Z AUTO 18004KT 9999 FEW029 BKN049 06/01 Q1022
EGGW 171750Z AUTO VRB03KT 9999 BKN030 06/01 Q1021   
EGGW 171720Z AUTO 21005KT 9999 BKN034 OVC040 07/01 Q1021
EGGW 171650Z AUTO 20005KT 160V230 9999 OVC036 08/01 Q1021   
EGGW 171620Z AUTO 21005KT 9999 BKN035 08/01 Q1021   
EGGW 171550Z AUTO 22008KT 9999 NCD 08/01 Q1021  
EGGW 171520Z AUTO 20006KT 160V230 9999 NCD 08/01 Q1021  
EGGW 171450Z AUTO 21007KT 170V230 9999 FEW038 08/01 Q1021   
EGGW 171420Z AUTO 21009KT 150V230 9999 SCT032 08/01 Q1021   
EGGW 171350Z AUTO 21008KT 9999 SCT030 09/02 Q1021   
EGGW 171320Z AUTO 20007KT 160V230 9999 SCT029 08/02 Q1021   
EGGW 171250Z AUTO 19007KT 140V220 9999 BKN026 08/02 Q1022   
EGGW 171220Z 22008KT 170V230 9999 SCT024 08/03 Q1022
EGGW 171150Z AUTO 19005KT 150V230 9999 NCD 08/03 Q1022  
EGGW 171120Z AUTO 19007KT 150V220 9999 NCD 07/04 Q1022  
EGGW 171050Z AUTO 19006KT 150V220 9999 NCD 07/04 Q1021  
EGGW 171020Z AUTO 19006KT 150V210 9999 NCD 06/04 Q1021  
EGGW 170950Z AUTO 19004KT 150V220 9999 NCD 05/03 Q1021  
EGGW 170920Z AUTO 18004KT 150V220 9000 NCD 04/03 Q1021  
EGGW 170850Z AUTO 16004KT 140V200 6000 NCD 02/02 Q1021  
EGGW 170820Z AUTO 16004KT 4400 BR NCD 02/01 Q1021   
EGGW 170750Z AUTO 17004KT 6000 NCD 01/00 Q1021  
EGGW 170720Z AUTO 17003KT 8000 NCD 01/01 Q1021  
EGGW 170650Z AUTO VRB03KT 8000 NCD 01/01 Q1020  
EGGW 170620Z AUTO 13004KT 8000 NCD 01/00 Q1020  
EGGW 170550Z AUTO 15003KT 8000 NCD 02/01 Q1020  
EGGW 170520Z AUTO 13004KT 9999 NCD 01/00 Q1020  
EGGW 170450Z AUTO 13004KT 9999 NCD 01/00 Q1020  
EGGW 170420Z AUTO 14005KT 9999 NCD 01/M00 Q1021 
EGGW 170350Z AUTO 13003KT 9999 NCD 00/M01 Q1021 
EGGW 170320Z AUTO 13004KT 9999 NCD M00/M01 Q1021
EGGW 170250Z AUTO 13003KT 9999 NCD 01/00 Q1021  
EGGW 170220Z AUTO 15003KT 9999 NCD 01/00 Q1021